Terminal Aerodrome Forecast
Issued by NWS

Home | Current Version | Previous Version | Graphics & Text | Print | Product List | Glossary On
Versions: 1 2 3 4 5 6 7 8 9 10 11 12 13 14 15 16 17 18 19 20 21 22 23 24 25 26 27 28 29 30 31 32 33 34 35 36
000
FTUS43 KGRB 250520
TAFRHI
TAF
KRHI 250520Z 2506/2606 09008KT 5SM -RA BR BKN005 OVC010
      TEMPO 2506/2509 2SM RA BR
     FM250900 12006KT 5SM -SHRA BR BKN004 OVC008
     FM251500 13007KT 3SM RA BR BKN006 OVC012
     FM251900 21009G16KT P6SM VCSH OVC015
     FM252200 24012G22KT P6SM VCSH BKN020
     FM260000 23007KT P6SM BKN015 BKN030=

USA.gov is the U.S. government's official web portal to all federal, state and local government web resources and services.